createdAt,value
2022-10-09T00:02:59.349Z,100
2022-10-09T00:17:55.254Z,100
2022-10-09T00:32:51.776Z,100
2022-10-09T00:47:48.006Z,100
2022-10-09T01:02:44.190Z,100
2022-10-09T01:17:40.544Z,100
2022-10-09T01:32:36.803Z,100
2022-10-09T01:47:33.030Z,100
2022-10-09T02:02:29.291Z,100
2022-10-09T02:17:25.398Z,100
2022-10-09T02:32:21.885Z,100
2022-10-09T02:47:17.587Z,100
2022-10-09T03:02:14.298Z,100
2022-10-09T03:17:10.477Z,100
2022-10-09T03:32:06.782Z,100
2022-10-09T03:47:03.628Z,100
2022-10-09T04:01:59.713Z,100
2022-10-09T04:16:55.902Z,100
2022-10-09T04:31:52.677Z,100
2022-10-09T04:46:49.052Z,100
2022-10-09T05:01:45.598Z,100
2022-10-09T05:17:01.234Z,100
2022-10-09T05:31:38.443Z,100
2022-10-09T05:46:34.880Z,100
2022-10-09T06:01:31.366Z,100
2022-10-09T06:16:27.497Z,100
2022-10-09T06:31:24.248Z,100
2022-10-09T06:46:19.496Z,100
2022-10-09T07:01:15.920Z,100
2022-10-09T07:16:12.278Z,100
2022-10-09T07:31:08.292Z,100
2022-10-09T07:46:04.640Z,100
2022-10-09T08:01:00.510Z,100
2022-10-09T08:15:56.987Z,100
2022-10-09T08:30:54.092Z,100
2022-10-09T08:45:50.827Z,100
2022-10-09T09:00:47.547Z,91.6
2022-10-09T09:15:44.466Z,80.74
2022-10-09T09:30:41.619Z,74.75
2022-10-09T09:45:38.089Z,70.43
2022-10-09T10:00:35.024Z,71.07
2022-10-09T10:15:31.250Z,74.32
2022-10-09T10:30:27.562Z,72.22
2022-10-09T10:45:24.246Z,62.41
2022-10-09T11:00:20.904Z,59.32
2022-10-09T11:15:17.651Z,56.24
2022-10-09T11:30:14.522Z,54.51
2022-10-09T11:45:11.422Z,49.48
2022-10-09T12:00:07.985Z,48.98
2022-10-09T12:15:04.385Z,47.94
2022-10-09T12:30:00.440Z,46.61
2022-10-09T12:44:56.806Z,46.75
2022-10-09T12:59:52.828Z,49.49
2022-10-09T13:14:48.618Z,53.2
2022-10-09T13:29:44.667Z,47.97
2022-10-09T13:44:40.524Z,49.35
2022-10-09T13:59:36.435Z,47.21
2022-10-09T14:14:32.506Z,42.28
2022-10-09T14:29:28.519Z,43.27
2022-10-09T14:44:24.844Z,41.44
2022-10-09T14:59:21.147Z,44.01
2022-10-09T15:14:17.223Z,46.47
2022-10-09T15:29:13.447Z,46.47
2022-10-09T15:44:09.411Z,46.68
2022-10-09T15:59:05.500Z,51.2
2022-10-09T16:14:01.379Z,51.19
2022-10-09T16:28:57.897Z,52.64
2022-10-09T16:43:53.363Z,56.42
2022-10-09T16:58:48.910Z,64.96
2022-10-09T17:13:44.334Z,69.32
2022-10-09T17:28:39.232Z,73.9
2022-10-09T17:43:35.010Z,77.8
2022-10-09T17:58:30.674Z,83.55
2022-10-09T18:13:26.343Z,87.83
2022-10-09T18:28:22.781Z,90.11
2022-10-09T18:43:18.413Z,91.19
2022-10-09T18:58:14.256Z,87.66
2022-10-09T19:13:10.393Z,80.98
2022-10-09T19:28:06.541Z,79.47
2022-10-09T19:43:02.866Z,83.77
2022-10-09T19:57:58.789Z,90.74
2022-10-09T20:12:55.112Z,96.24
2022-10-09T20:27:51.119Z,100
2022-10-09T20:42:47.290Z,100
2022-10-09T20:57:43.104Z,100
2022-10-09T22:12:23.754Z,99.77
2022-10-09T22:27:20.202Z,100
2022-10-09T22:42:16.572Z,100
2022-10-09T22:57:12.584Z,100
2022-10-09T23:12:08.791Z,100
2022-10-09T23:27:05.220Z,100
2022-10-09T23:42:01.291Z,100
2022-10-09T23:56:57.343Z,100
